< < Back
Terminal Aerodrome Forecast


Current Version              Previous Versions:   1  2  3  4  5  6  7  8  9  

Terminal Aerodrome Forecast

241
FTUS42 KILM 261700
TAFFLO
TAF
KFLO 261721Z 2618/2718 03011G18KT P6SM FEW040
     FM270000 03004KT P6SM SKC
     FM271400 02008KT P6SM SKC=

Latest METAR

056
SAUS70 KWBC 271500 RRC
MTRFLO
METAR KFLO 271453Z 01011KT 10SM CLR 27/16 A3006 RMK AO2 SLP175 T02670156
50002


USA.gov is the U.S. government's official web portal to all federal, state and local government web resources and services.